Time;durP1;ratioP1;P1;durP2;ratioP2;P2;SDS_P1;SDS_P2;PMS_P1;PMS_P2;Temp;Humidity;BMP_temperature;BMP_pressure;BME280_temperature;BME280_humidity;BME280_pressure;Samples;Min_cycle;Max_cycle;Signal;HPM_P1;HPM_P2
2023/03/22 00:01:16;;;;;;;;;;;;;;;9.30;88.33;100949.81;5021174;28;19924;-63
2023/03/22 00:03:41;;;;;;;;;;;;;;;9.29;88.39;100948.16;5020635;28;19996;-63
2023/03/22 00:06:07;;;;;;;;;;;;;;;9.25;88.03;100947.66;5020948;28;20067;-62
2023/03/22 00:08:32;;;;;;;;;;;;;;;9.19;88.38;100937.69;5025398;28;19918;-63
2023/03/22 00:10:58;;;;;;;;;;;;;;;9.16;88.46;100935.34;5025541;28;19925;-64
2023/03/22 00:13:23;;;;;;;;;;;;;;;9.17;88.79;100934.34;5020475;28;19914;-63
2023/03/22 00:15:48;;;;;;;;;;;;;;;9.18;88.87;100929.88;5026024;28;19925;-63
2023/03/22 00:18:17;;;;;;;;;;;;;;;9.17;88.43;100920.28;5027315;28;19955;-64
2023/03/22 00:20:51;;;;;;;;;;;;;;;9.16;88.73;100921.25;5021439;28;20537;-64
2023/03/22 00:23:16;;;;;;;;;;;;;;;9.16;88.83;100918.63;5024468;28;19913;-63
2023/03/22 00:25:42;;;;;;;;;;;;;;;9.14;88.91;100916.13;5024596;28;20059;-63
2023/03/22 00:28:08;;;;;;;;;;;;;;;9.11;88.38;100915.63;5024651;28;19975;-63
2023/03/22 00:30:33;;;;;;;;;;;;;;;9.06;88.78;100912.63;5024626;28;20027;-64
2023/03/22 00:32:58;;;;;;;;;;;;;;;9.06;88.79;100907.31;5021727;28;19925;-64
2023/03/22 00:35:23;;;;;;;;;;;;;;;9.05;88.54;100908.31;5020950;28;19917;-63
2023/03/22 00:37:50;;;;;;;;;;;;;;;9.04;88.54;100898.72;5019355;28;19970;-64
2023/03/22 00:40:15;;;;;;;;;;;;;;;9.03;89.08;100894.41;5019932;28;19918;-63
2023/03/22 00:42:40;;;;;;;;;;;;;;;9.03;89.04;100894.41;5022201;28;19932;-63
2023/03/22 00:45:07;;;;;;;;;;;;;;;9.03;88.92;100876.69;5020800;28;20019;-64
2023/03/22 00:47:32;;;;;;;;;;;;;;;9.01;88.95;100878.66;5024191;28;20003;-64
2023/03/22 00:49:58;;;;;;;;;;;;;;;8.99;88.63;100883.31;5023807;28;20044;-63
2023/03/22 00:52:23;;;;;;;;;;;;;;;8.98;89.01;100877.16;5023927;28;19921;-63
2023/03/22 00:54:48;;;;;;;;;;;;;;;8.98;88.73;100871.88;5023511;28;20442;-64
2023/03/22 00:57:13;;;;;;;;;;;;;;;8.98;88.81;100876.34;5019258;28;19922;-63
2023/03/22 00:59:39;;;;;;;;;;;;;;;8.96;88.58;100884.44;5025653;28;19913;-64
2023/03/22 01:02:05;;;;;;;;;;;;;;;8.94;89.08;100867.84;5021851;28;20442;-64
2023/03/22 01:04:31;;;;;;;;;;;;;;;8.93;88.97;100874.16;5026169;28;19925;-63
2023/03/22 01:07:00;;;;;;;;;;;;;;;8.93;89.14;100868.03;5023843;28;19921;-64
2023/03/22 01:09:28;;;;;;;;;;;;;;;8.93;89.17;100857.44;5025319;28;19921;-63
2023/03/22 01:11:55;;;;;;;;;;;;;;;8.89;89.23;100850.78;5021839;28;19921;-64
2023/03/22 01:14:20;;;;;;;;;;;;;;;8.89;89.39;100845.50;5026292;28;20567;-64
2023/03/22 01:16:45;;;;;;;;;;;;;;;8.91;89.71;100844.34;5026640;28;19924;-64
2023/03/22 01:19:11;;;;;;;;;;;;;;;8.93;89.96;100838.88;5027252;28;20456;-63
2023/03/22 01:21:36;;;;;;;;;;;;;;;8.95;90.28;100834.25;5017832;28;19925;-63
2023/03/22 01:24:01;;;;;;;;;;;;;;;8.96;90.37;100826.19;5019857;28;19957;-64
2023/03/22 01:26:26;;;;;;;;;;;;;;;8.99;90.46;100811.78;5026611;28;19924;-63
2023/03/22 01:28:51;;;;;;;;;;;;;;;9.04;90.73;100820.06;5025179;28;19968;-64
2023/03/22 01:31:16;;;;;;;;;;;;;;;9.10;90.93;100815.94;5019026;28;20079;-63
2023/03/22 01:33:42;;;;;;;;;;;;;;;9.14;91.36;100806.69;5025410;28;19964;-63
2023/03/22 01:36:07;;;;;;;;;;;;;;;9.17;91.67;100806.34;5028991;28;20338;-63
2023/03/22 01:38:32;;;;;;;;;;;;;;;9.22;91.87;100798.75;5023319;28;19914;-64
2023/03/22 01:40:57;;;;;;;;;;;;;;;9.26;91.84;100790.31;5024797;28;19928;-64
2023/03/22 01:43:22;;;;;;;;;;;;;;;9.31;92.30;100781.88;5021672;28;20004;-63
2023/03/22 01:45:48;;;;;;;;;;;;;;;9.37;92.39;100772.44;5019124;28;20008;-63
2023/03/22 01:48:16;;;;;;;;;;;;;;;9.42;93.02;100778.06;5019825;28;21127;-63
2023/03/22 01:50:43;;;;;;;;;;;;;;;9.48;93.12;100759.69;5022490;28;19929;-64
2023/03/22 01:53:10;;;;;;;;;;;;;;;9.54;93.06;100766.13;5023930;28;19928;-64
2023/03/22 01:55:36;;;;;;;;;;;;;;;9.56;93.09;100754.41;5024633;28;19963;-64
2023/03/22 01:58:02;;;;;;;;;;;;;;;9.58;93.15;100749.75;5022498;28;19967;-64
2023/03/22 02:00:27;;;;;;;;;;;;;;;9.62;93.16;100750.25;5023934;28;19955;-62
2023/03/22 02:02:53;;;;;;;;;;;;;;;9.63;93.35;100742.13;5008961;28;19917;-63
2023/03/22 02:05:21;;;;;;;;;;;;;;;9.64;93.59;100745.59;5016675;28;20454;-64
2023/03/22 02:07:47;;;;;;;;;;;;;;;9.67;93.89;100733.84;5021907;28;20294;-64
2023/03/22 02:10:13;;;;;;;;;;;;;;;9.70;93.72;100739.63;5029279;28;19964;-64
2023/03/22 02:12:39;;;;;;;;;;;;;;;9.71;93.82;100735.97;5024442;28;19913;-64
2023/03/22 02:15:22;;;;;;;;;;;;;;;9.73;94.36;100730.50;5027475;28;19924;-64
2023/03/22 02:18:05;;;;;;;;;;;;;;;9.76;94.16;100731.00;5021454;28;19928;-63
2023/03/22 02:20:48;;;;;;;;;;;;;;;9.80;94.10;100729.66;5018709;28;19921;-64
2023/03/22 02:23:34;;;;;;;;;;;;;;;9.83;94.17;100728.50;5026141;28;20378;-64
2023/03/22 02:25:59;;;;;;;;;;;;;;;9.84;94.26;100724.88;5024470;28;19913;-64
2023/03/22 02:28:31;;;;;;;;;;;;;;;9.81;94.36;100728.66;5023311;28;19923;-64
2023/03/22 02:31:13;;;;;;;;;;;;;;;9.82;94.44;100719.72;5019432;28;19924;-64
2023/03/22 02:33:57;;;;;;;;;;;;;;;9.81;94.47;100717.22;5023169;28;19925;-64
2023/03/22 02:36:46;;;;;;;;;;;;;;;9.80;94.27;100718.22;5028487;28;20003;-64
2023/03/22 02:39:31;;;;;;;;;;;;;;;9.78;94.39;100718.41;5013168;28;19921;-64
2023/03/22 02:41:56;;;;;;;;;;;;;;;9.78;94.77;100712.28;5019614;28;19926;-64
2023/03/22 02:44:21;;;;;;;;;;;;;;;9.78;94.90;100720.22;5024742;28;19924;-64
2023/03/22 02:46:50;;;;;;;;;;;;;;;9.75;94.65;100710.78;5019235;28;19920;-64
2023/03/22 02:49:19;;;;;;;;;;;;;;;9.79;94.89;100711.28;5024204;28;19987;-64
2023/03/22 02:52:09;;;;;;;;;;;;;;;9.79;94.70;100713.91;5022096;28;20309;-63
2023/03/22 02:54:43;;;;;;;;;;;;;;;9.79;94.93;100705.97;5022533;28;19930;-64
2023/03/22 02:57:19;;;;;;;;;;;;;;;9.77;94.79;100698.19;5023834;28;19923;-64
2023/03/22 02:59:45;;;;;;;;;;;;;;;9.80;95.04;100694.34;5023098;28;20391;-63
2023/03/22 03:02:13;;;;;;;;;;;;;;;9.79;94.70;100690.88;5023337;28;20326;-64
2023/03/22 03:04:43;;;;;;;;;;;;;;;9.78;94.95;100688.41;5018174;28;19928;-64
2023/03/22 03:07:10;;;;;;;;;;;;;;;9.77;94.90;100689.41;5021467;28;19925;-63
2023/03/22 03:09:38;;;;;;;;;;;;;;;9.78;94.70;100683.09;5025225;28;19941;-64
2023/03/22 03:12:07;;;;;;;;;;;;;;;9.77;94.84;100682.28;5027709;28;19924;-64
2023/03/22 03:14:33;;;;;;;;;;;;;;;9.76;94.64;100679.78;5028126;28;20435;-64
2023/03/22 03:17:08;;;;;;;;;;;;;;;9.76;94.63;100679.78;5023482;28;20000;-64
2023/03/22 03:19:41;;;;;;;;;;;;;;;9.76;94.61;100680.63;5027798;28;19925;-64
2023/03/22 03:22:14;;;;;;;;;;;;;;;9.77;94.43;100678.78;5021426;28;20605;-64
2023/03/22 03:24:47;;;;;;;;;;;;;;;9.76;94.47;100682.44;5028077;28;19913;-63
2023/03/22 03:27:20;;;;;;;;;;;;;;;9.79;94.33;100674.97;5020542;28;19924;-64
2023/03/22 03:29:48;;;;;;;;;;;;;;;9.78;94.21;100675.13;5027707;28;19925;-64
2023/03/22 03:32:17;;;;;;;;;;;;;;;9.77;94.39;100676.13;5018998;28;20291;-64
2023/03/22 03:34:57;;;;;;;;;;;;;;;9.75;94.10;100686.91;5025023;28;20431;-64
2023/03/22 03:37:32;;;;;;;;;;;;;;;9.76;94.04;100677.13;5027529;28;19917;-63
2023/03/22 03:40:04;;;;;;;;;;;;;;;9.76;94.06;100675.31;5025843;28;19917;-64
2023/03/22 03:42:29;;;;;;;;;;;;;;;9.77;94.11;100676.97;5016079;28;19920;-63
2023/03/22 03:44:55;;;;;;;;;;;;;;;9.73;94.14;100673.00;5024478;28;20465;-64
2023/03/22 03:47:20;;;;;;;;;;;;;;;9.70;93.88;100678.66;5025707;28;19924;-63
2023/03/22 03:49:45;;;;;;;;;;;;;;;9.69;93.66;100692.06;5020020;28;19944;-64
2023/03/22 03:52:12;;;;;;;;;;;;;;;9.69;93.64;100681.47;5019657;28;20406;-63
2023/03/22 03:54:37;;;;;;;;;;;;;;;9.65;93.85;100683.63;5023351;28;19925;-63
2023/03/22 03:57:02;;;;;;;;;;;;;;;9.63;93.76;100686.44;5021242;28;20445;-64
2023/03/22 03:59:27;;;;;;;;;;;;;;;9.61;93.48;100688.44;5020743;28;20378;-64
2023/03/22 04:01:52;;;;;;;;;;;;;;;9.59;93.66;100682.47;5020299;28;19917;-63
2023/03/22 04:04:25;;;;;;;;;;;;;;;9.60;93.22;100676.19;5025731;28;20400;-63
2023/03/22 04:06:51;;;;;;;;;;;;;;;9.55;93.49;100686.47;5014678;28;19993;-64
2023/03/22 04:09:17;;;;;;;;;;;;;;;9.46;93.29;100666.25;5015037;28;19928;-63
2023/03/22 04:11:42;;;;;;;;;;;;;;;9.54;93.44;100678.66;5018186;28;19917;-64
2023/03/22 04:14:07;;;;;;;;;;;;;;;9.53;93.38;100679.66;5017517;28;20634;-62
2023/03/22 04:16:32;;;;;;;;;;;;;;;9.54;93.16;100673.34;5017606;28;19923;-64
2023/03/22 04:18:57;;;;;;;;;;;;;;;9.55;93.00;100670.56;5017766;28;19921;-62
2023/03/22 04:21:23;;;;;;;;;;;;;;;9.53;93.07;100674.34;5018155;28;19924;-64
2023/03/22 04:23:48;;;;;;;;;;;;;;;9.52;93.04;100676.16;5016441;28;19921;-64
2023/03/22 04:26:13;;;;;;;;;;;;;;;9.48;92.93;100676.69;5019222;28;20570;-64
2023/03/22 04:28:38;;;;;;;;;;;;;;;9.43;92.84;100671.88;5018746;28;19924;-63
2023/03/22 04:31:03;;;;;;;;;;;;;;;9.41;92.82;100671.22;5018878;28;20535;-63
2023/03/22 04:33:31;;;;;;;;;;;;;;;9.42;93.07;100666.75;5017184;28;20380;-64
2023/03/22 04:35:56;;;;;;;;;;;;;;;9.41;92.80;100665.09;5017705;28;21275;-63
2023/03/22 04:38:22;;;;;;;;;;;;;;;9.39;92.85;100659.97;5016454;28;19932;-64
2023/03/22 04:40:47;;;;;;;;;;;;;;;9.38;92.60;100657.50;5017096;28;19996;-64
2023/03/22 04:43:13;;;;;;;;;;;;;;;9.37;92.61;100659.31;5016863;28;19925;-64
2023/03/22 04:45:38;;;;;;;;;;;;;;;9.34;92.63;100654.34;5017506;28;19925;-64
2023/03/22 04:48:06;;;;;;;;;;;;;;;9.35;92.71;100657.81;5017942;28;19917;-64
2023/03/22 04:50:31;;;;;;;;;;;;;;;9.34;92.99;100653.53;5022493;28;20421;-64
2023/03/22 04:52:57;;;;;;;;;;;;;;;9.32;92.95;100665.13;5022542;28;19964;-64
2023/03/22 04:55:22;;;;;;;;;;;;;;;9.31;92.90;100657.34;5021254;28;19925;-63
2023/03/22 04:57:47;;;;;;;;;;;;;;;9.30;92.72;100659.16;5018840;28;19925;-64
2023/03/22 05:00:14;;;;;;;;;;;;;;;9.29;92.75;100654.03;5023494;28;20409;-64
2023/03/22 05:02:39;;;;;;;;;;;;;;;9.29;92.76;100662.81;5020821;28;19917;-64
2023/03/22 05:05:05;;;;;;;;;;;;;;;9.30;92.85;100648.56;5024934;28;20371;-64
2023/03/22 05:07:30;;;;;;;;;;;;;;;9.31;93.13;100641.44;5026225;28;20397;-64
2023/03/22 05:09:55;;;;;;;;;;;;;;;9.30;92.91;100640.59;5027239;28;19921;-64
2023/03/22 05:12:20;;;;;;;;;;;;;;;9.31;92.79;100636.13;5028677;28;19987;-64
2023/03/22 05:14:45;;;;;;;;;;;;;;;9.33;92.73;100639.44;5020591;28;19913;-64
2023/03/22 05:17:11;;;;;;;;;;;;;;;9.33;92.44;100639.44;5020051;28;19917;-63
2023/03/22 05:19:36;;;;;;;;;;;;;;;9.30;92.66;100634.47;5028178;28;20019;-63
2023/03/22 05:22:01;;;;;;;;;;;;;;;9.29;92.76;100636.31;5022608;28;20008;-64
2023/03/22 05:24:28;;;;;;;;;;;;;;;9.27;92.69;100635.66;5023631;28;19924;-64
2023/03/22 05:26:53;;;;;;;;;;;;;;;9.26;92.44;100634.00;5023559;28;20007;-64
2023/03/22 05:29:19;;;;;;;;;;;;;;;9.25;92.44;100634.13;5025050;28;20028;-64
2023/03/22 05:31:44;;;;;;;;;;;;;;;9.23;92.25;100644.91;5026959;28;19979;-64
2023/03/22 05:34:09;;;;;;;;;;;;;;;9.23;92.31;100638.75;5027114;28;20000;-64
2023/03/22 05:36:35;;;;;;;;;;;;;;;9.20;92.63;100634.63;5026936;28;20290;-64
2023/03/22 05:39:01;;;;;;;;;;;;;;;9.18;92.56;100627.84;5025517;28;19924;-63
2023/03/22 05:41:26;;;;;;;;;;;;;;;9.15;92.77;100636.97;5026393;28;20371;-64
2023/03/22 05:43:51;;;;;;;;;;;;;;;9.16;92.60;100637.78;5023967;28;20032;-63
2023/03/22 05:46:16;;;;;;;;;;;;;;;9.17;92.47;100642.09;5027766;28;19917;-64
2023/03/22 05:48:41;;;;;;;;;;;;;;;9.16;92.38;100635.13;5024703;28;20008;-64
2023/03/22 05:51:08;;;;;;;;;;;;;;;9.17;92.34;100637.63;5024494;28;20987;-64
2023/03/22 05:53:33;;;;;;;;;;;;;;;9.20;92.02;100641.75;5018058;28;20016;-64
2023/03/22 05:56:01;;;;;;;;;;;;;;;9.22;92.23;100639.75;5025774;28;20036;-63
2023/03/22 05:58:30;;;;;;;;;;;;;;;9.22;92.04;100639.75;5023749;28;19921;-63
2023/03/22 06:01:04;;;;;;;;;;;;;;;9.22;91.54;100645.06;5023318;28;20268;-63
2023/03/22 06:03:30;;;;;;;;;;;;;;;9.24;91.63;100632.47;5025633;28;19923;-63
2023/03/22 06:05:55;;;;;;;;;;;;;;;9.25;91.72;100640.28;5021873;28;19917;-64
2023/03/22 06:08:21;;;;;;;;;;;;;;;9.24;91.14;100637.78;5023963;28;19917;-64
2023/03/22 06:10:50;;;;;;;;;;;;;;;9.25;91.14;100628.81;5020074;28;19930;-64
2023/03/22 06:13:15;;;;;;;;;;;;;;;9.25;91.12;100629.69;5023188;28;20359;-64
2023/03/22 06:15:40;;;;;;;;;;;;;;;9.27;91.35;100632.16;5023454;28;20510;-64
2023/03/22 06:18:05;;;;;;;;;;;;;;;9.29;91.15;100622.22;5019073;28;19925;-63
2023/03/22 06:20:31;;;;;;;;;;;;;;;9.30;90.77;100627.34;5022046;28;20019;-64
2023/03/22 06:22:56;;;;;;;;;;;;;;;9.34;90.63;100624.38;5017754;28;20015;-63
2023/03/22 06:25:21;;;;;;;;;;;;;;;9.36;90.28;100625.84;5020911;28;19982;-63
2023/03/22 06:27:47;;;;;;;;;;;;;;;9.38;90.19;100630.97;5022396;28;20008;-63
2023/03/22 06:30:12;;;;;;;;;;;;;;;9.39;90.37;100638.75;5024649;28;19921;-63
2023/03/22 06:32:37;;;;;;;;;;;;;;;9.40;90.05;100637.78;5023763;28;19926;-64
2023/03/22 06:35:02;;;;;;;;;;;;;;;9.43;90.14;100637.44;5020319;28;20000;-63
2023/03/22 06:37:28;;;;;;;;;;;;;;;9.45;90.01;100635.44;5027743;28;19959;-62
2023/03/22 06:39:53;;;;;;;;;;;;;;;9.49;89.54;100634.09;5024669;28;19919;-64
2023/03/22 06:42:18;;;;;;;;;;;;;;;9.50;89.36;100622.50;5019626;28;20341;-64
2023/03/22 06:44:43;;;;;;;;;;;;;;;9.53;89.29;100632.75;5019778;28;19917;-64
2023/03/22 06:47:09;;;;;;;;;;;;;;;9.58;89.13;100642.88;5024222;28;20344;-64
2023/03/22 06:49:35;;;;;;;;;;;;;;;9.60;89.09;100628.47;5028082;28;19918;-63
2023/03/22 06:52:00;;;;;;;;;;;;;;;9.64;88.84;100628.94;5016760;28;19917;-63
2023/03/22 06:54:25;;;;;;;;;;;;;;;9.67;89.17;100620.66;5017661;28;19918;-64
2023/03/22 06:56:51;;;;;;;;;;;;;;;9.73;89.00;100627.91;5021106;28;19963;-64
2023/03/22 06:59:16;;;;;;;;;;;;;;;9.78;88.62;100625.56;5027972;28;19966;-64
2023/03/22 07:01:41;;;;;;;;;;;;;;;9.83;88.42;100633.03;5021634;28;19921;-64
2023/03/22 07:04:06;;;;;;;;;;;;;;;9.88;88.48;100630.72;5024983;28;19918;-64
2023/03/22 07:06:31;;;;;;;;;;;;;;;9.89;88.31;100635.00;5026415;28;20425;-64
2023/03/22 07:08:57;;;;;;;;;;;;;;;9.90;88.20;100631.34;5021669;28;19929;-64
2023/03/22 07:11:22;;;;;;;;;;;;;;;9.89;88.07;100645.63;5019143;28;20023;-64
2023/03/22 07:13:47;;;;;;;;;;;;;;;9.87;88.15;100637.00;5026024;28;19917;-63
2023/03/22 07:16:13;;;;;;;;;;;;;;;9.87;87.60;100629.88;5019547;28;20059;-63
2023/03/22 07:18:38;;;;;;;;;;;;;;;9.88;87.50;100626.22;5019713;28;19932;-64
2023/03/22 07:21:03;;;;;;;;;;;;;;;9.88;87.61;100628.06;5017123;28;19955;-63
2023/03/22 07:23:29;;;;;;;;;;;;;;;9.88;87.97;100620.09;5022838;28;19921;-63
2023/03/22 07:25:54;;;;;;;;;;;;;;;9.88;87.20;100633.34;5023401;28;19928;-64
2023/03/22 07:28:20;;;;;;;;;;;;;;;9.93;87.41;100636.31;5021603;28;20537;-62
2023/03/22 07:30:45;;;;;;;;;;;;;;;9.95;87.33;100634.31;5025901;28;20417;-64
2023/03/22 07:33:11;;;;;;;;;;;;;;;9.95;87.25;100642.28;5016622;28;19924;-64
2023/03/22 07:35:36;;;;;;;;;;;;;;;9.96;87.23;100641.28;5022049;28;19925;-64
2023/03/22 07:38:02;;;;;;;;;;;;;;;9.96;86.99;100654.53;5017786;28;19924;-63
2023/03/22 07:40:28;;;;;;;;;;;;;;;9.96;86.98;100643.09;5023384;28;19917;-64
2023/03/22 07:42:53;;;;;;;;;;;;;;;9.98;86.99;100641.94;5020050;28;19924;-63
2023/03/22 07:45:19;;;;;;;;;;;;;;;9.97;86.57;100658.84;5023258;28;20341;-62
2023/03/22 07:47:44;;;;;;;;;;;;;;;9.99;86.60;100651.53;5021587;28;20003;-64
2023/03/22 07:50:12;;;;;;;;;;;;;;;10.02;86.31;100651.19;5021441;28;19922;-63
2023/03/22 07:52:40;;;;;;;;;;;;;;;10.05;86.16;100648.19;5023794;28;20321;-63
2023/03/22 07:55:06;;;;;;;;;;;;;;;10.07;86.31;100640.06;5020172;28;20355;-64
2023/03/22 07:57:32;;;;;;;;;;;;;;;10.08;85.92;100647.84;5026145;28;20004;-63
2023/03/22 07:59:57;;;;;;;;;;;;;;;10.11;85.84;100649.34;5021127;28;19921;-64
2023/03/22 08:02:22;;;;;;;;;;;;;;;10.12;85.54;100649.19;5026568;28;19996;-64
2023/03/22 08:04:49;;;;;;;;;;;;;;;10.14;85.18;100654.31;5021108;28;20461;-64
2023/03/22 08:07:14;;;;;;;;;;;;;;;10.17;85.72;100653.97;5025275;28;19949;-63
2023/03/22 08:09:39;;;;;;;;;;;;;;;10.20;85.12;100656.28;5023715;28;19955;-63
2023/03/22 08:12:05;;;;;;;;;;;;;;;10.22;84.94;100664.94;5024943;28;19932;-64
2023/03/22 08:14:30;;;;;;;;;;;;;;;10.21;84.48;100655.31;5027543;28;19913;-64
2023/03/22 08:16:55;;;;;;;;;;;;;;;10.23;84.13;100646.19;5027312;28;19913;-64
2023/03/22 08:19:20;;;;;;;;;;;;;;;10.28;83.95;100652.78;5015452;28;19918;-63
2023/03/22 08:21:46;;;;;;;;;;;;;;;10.31;83.43;100653.25;5020086;28;19974;-64
2023/03/22 08:24:11;;;;;;;;;;;;;;;10.38;83.37;100648.09;5021944;28;19921;-64
2023/03/22 08:26:36;;;;;;;;;;;;;;;10.45;82.80;100651.72;5019818;28;19914;-63
2023/03/22 08:29:01;;;;;;;;;;;;;;;10.47;82.48;100652.38;5022572;28;20414;-64
2023/03/22 08:31:27;;;;;;;;;;;;;;;10.53;81.85;100651.66;5022233;28;19970;-64
2023/03/22 08:33:52;;;;;;;;;;;;;;;10.57;81.97;100647.66;5024471;28;19920;-64
2023/03/22 08:36:21;;;;;;;;;;;;;;;10.60;81.81;100634.03;5019374;28;20043;-63
2023/03/22 08:38:47;;;;;;;;;;;;;;;10.65;81.60;100628.19;5017853;28;19917;-64
2023/03/22 08:41:12;;;;;;;;;;;;;;;10.70;81.39;100633.81;5019168;28;19920;-64
2023/03/22 08:43:37;;;;;;;;;;;;;;;10.75;81.22;100634.09;5021496;28;19924;-63
2023/03/22 08:46:03;;;;;;;;;;;;;;;10.75;80.90;100629.63;5027132;28;19943;-64
2023/03/22 08:48:29;;;;;;;;;;;;;;;10.78;80.56;100637.22;5016337;28;20641;-64
2023/03/22 08:50:55;;;;;;;;;;;;;;;10.81;79.97;100638.69;5026914;28;19917;-64
2023/03/22 08:53:20;;;;;;;;;;;;;;;10.83;80.16;100634.88;5025242;28;19963;-64
2023/03/22 08:55:46;;;;;;;;;;;;;;;10.89;79.89;100654.56;5031687;28;19996;-64
2023/03/22 08:58:11;;;;;;;;;;;;;;;10.93;79.83;100639.09;5020062;28;19917;-63
2023/03/22 09:00:37;;;;;;;;;;;;;;;10.96;79.49;100636.09;5028460;28;20330;-63
2023/03/22 09:03:03;;;;;;;;;;;;;;;11.00;79.80;100626.78;5024841;28;19925;-64
2023/03/22 09:05:28;;;;;;;;;;;;;;;11.06;79.33;100634.03;5028741;28;20496;-64
2023/03/22 09:07:53;;;;;;;;;;;;;;;11.10;79.04;100628.19;5028575;28;19917;-63
2023/03/22 09:10:18;;;;;;;;;;;;;;;11.14;79.24;100634.78;5030386;28;19921;-63
2023/03/22 09:12:44;;;;;;;;;;;;;;;11.18;78.89;100629.94;5024749;28;19940;-64
2023/03/22 09:15:09;;;;;;;;;;;;;;;11.20;78.44;100619.13;5028749;28;19957;-64
2023/03/22 09:17:35;;;;;;;;;;;;;;;11.23;78.49;100627.56;5024906;28;20343;-64
2023/03/22 09:20:00;;;;;;;;;;;;;;;11.25;78.00;100612.25;5029037;28;19931;-64
2023/03/22 09:22:25;;;;;;;;;;;;;;;11.28;77.81;100627.88;5028147;28;19920;-64
2023/03/22 09:24:51;;;;;;;;;;;;;;;11.28;77.72;100624.38;5027883;28;20301;-63
2023/03/22 09:27:16;;;;;;;;;;;;;;;11.31;78.13;100624.03;5031453;28;19949;-64
2023/03/22 09:29:41;;;;;;;;;;;;;;;11.28;78.24;100606.59;5028097;28;19921;-64
2023/03/22 09:32:06;;;;;;;;;;;;;;;11.28;77.52;100608.44;5027040;28;20012;-64
2023/03/22 09:34:32;;;;;;;;;;;;;;;11.24;77.45;100615.91;5017516;28;19913;-64
2023/03/22 09:36:57;;;;;;;;;;;;;;;11.22;77.03;100603.81;5028337;28;19968;-64
2023/03/22 09:39:22;;;;;;;;;;;;;;;11.22;77.20;100617.94;5026827;28;19968;-63
2023/03/22 09:41:50;;;;;;;;;;;;;;;11.23;76.97;100622.25;5005749;28;19917;-64
2023/03/22 09:44:21;;;;;;;;;;;;;;;11.23;76.69;100605.47;5018623;28;19925;-63
2023/03/22 09:46:47;;;;;;;;;;;;;;;11.26;77.17;100616.56;5016435;28;19960;-64
2023/03/22 09:49:15;;;;;;;;;;;;;;;11.26;76.67;100613.06;5029892;28;19913;-64
2023/03/22 09:51:42;;;;;;;;;;;;;;;11.25;76.54;100614.91;5034514;28;19917;-64
2023/03/22 09:54:11;;;;;;;;;;;;;;;11.28;76.63;100616.41;5022014;28;19917;-63
2023/03/22 09:56:36;;;;;;;;;;;;;;;11.27;76.92;100609.41;5025261;28;19917;-63
2023/03/22 09:59:01;;;;;;;;;;;;;;;11.28;76.51;100624.38;5024192;28;20044;-63
2023/03/22 10:01:36;;;;;;;;;;;;;;;11.29;75.98;100620.72;5014192;28;20390;-64
2023/03/22 10:04:20;;;;;;;;;;;;;;;11.27;76.36;100617.38;5024969;28;20507;-64
2023/03/22 10:06:50;;;;;;;;;;;;;;;11.26;76.56;100608.59;5023890;28;19913;-64
2023/03/22 10:09:21;;;;;;;;;;;;;;;11.24;76.46;100626.56;5026403;28;20375;-64
2023/03/22 10:12:03;;;;;;;;;;;;;;;11.22;76.45;100619.75;5028259;28;19996;-64
2023/03/22 10:14:38;;;;;;;;;;;;;;;11.20;76.54;100622.59;5023717;28;20397;-64
2023/03/22 10:17:07;;;;;;;;;;;;;;;11.15;76.83;100622.31;5022789;28;19917;-64
2023/03/22 10:19:35;;;;;;;;;;;;;;;11.06;76.86;100628.72;5020492;28;19929;-64
2023/03/22 10:22:02;;;;;;;;;;;;;;;10.88;77.82;100628.19;5024253;28;20283;-64
2023/03/22 10:24:32;;;;;;;;;;;;;;;10.76;78.48;100641.91;5025909;28;20402;-64
2023/03/22 10:26:57;;;;;;;;;;;;;;;10.52;80.05;100628.78;5018825;28;19914;-64
2023/03/22 10:29:22;;;;;;;;;;;;;;;10.25;82.32;100622.13;5014850;28;19944;-65
2023/03/22 10:31:48;;;;;;;;;;;;;;;9.94;85.04;100638.81;5029127;28;19913;-64
2023/03/22 10:34:18;;;;;;;;;;;;;;;9.65;87.27;100653.63;5013968;28;19917;-65
2023/03/22 10:36:43;;;;;;;;;;;;;;;9.46;89.58;100639.75;5022312;28;20462;-65
2023/03/22 10:39:23;;;;;;;;;;;;;;;9.31;91.60;100642.25;5019841;28;19999;-63
2023/03/22 10:41:48;;;;;;;;;;;;;;;9.23;93.24;100636.13;5022627;28;19917;-64
2023/03/22 10:44:15;;;;;;;;;;;;;;;9.18;94.30;100633.16;5018672;28;20484;-64
2023/03/22 10:46:41;;;;;;;;;;;;;;;9.17;95.75;100637.63;5012749;28;20434;-64
2023/03/22 10:49:11;;;;;;;;;;;;;;;9.19;96.52;100634.78;5018104;28;19921;-64
2023/03/22 10:51:43;;;;;;;;;;;;;;;9.19;97.38;100632.16;5028823;28;20403;-64
2023/03/22 10:54:13;;;;;;;;;;;;;;;9.20;98.09;100631.97;5024055;28;19917;-64
2023/03/22 10:56:38;;;;;;;;;;;;;;;9.22;98.80;100635.28;5012452;28;20509;-64
2023/03/22 10:59:03;;;;;;;;;;;;;;;9.26;99.08;100635.81;5010617;28;19917;-64
2023/03/22 11:01:30;;;;;;;;;;;;;;;9.32;99.69;100638.63;5019756;28;19917;-64
2023/03/22 11:04:01;;;;;;;;;;;;;;;9.42;99.50;100634.94;5022824;28;19948;-65
2023/03/22 11:06:28;;;;;;;;;;;;;;;9.47;99.67;100625.50;5022227;28;19921;-64
2023/03/22 11:08:58;;;;;;;;;;;;;;;9.53;99.85;100631.94;5025934;28;20007;-64
2023/03/22 11:11:25;;;;;;;;;;;;;;;9.60;99.49;100625.81;5023633;28;19944;-64
2023/03/22 11:13:53;;;;;;;;;;;;;;;9.67;99.27;100615.34;5022171;28;19920;-64
2023/03/22 11:16:19;;;;;;;;;;;;;;;9.73;98.83;100622.63;5027601;28;19967;-64
2023/03/22 11:18:44;;;;;;;;;;;;;;;9.76;98.16;100624.09;5027155;28;19917;-64
2023/03/22 11:21:10;;;;;;;;;;;;;;;9.79;98.58;100623.75;5019471;28;20591;-64
2023/03/22 11:23:39;;;;;;;;;;;;;;;9.87;98.47;100613.97;5025853;28;19956;-64
2023/03/22 11:26:06;;;;;;;;;;;;;;;9.98;98.78;100614.56;5023382;28;20453;-64
2023/03/22 11:28:33;;;;;;;;;;;;;;;10.07;98.70;100611.72;5024781;28;20490;-64
2023/03/22 11:31:09;;;;;;;;;;;;;;;10.13;98.31;100615.53;5025376;28;19932;-64
2023/03/22 11:33:35;;;;;;;;;;;;;;;10.21;97.91;100616.34;5019829;28;19925;-64
2023/03/22 11:36:02;;;;;;;;;;;;;;;10.27;97.57;100613.97;5025099;28;20008;-64
2023/03/22 11:38:35;;;;;;;;;;;;;;;10.33;97.75;100618.59;5022395;28;19968;-64
2023/03/22 11:41:01;;;;;;;;;;;;;;;10.35;96.93;100614.75;5028270;28;19929;-64
2023/03/22 11:43:31;;;;;;;;;;;;;;;10.37;95.99;100612.75;5023926;28;19928;-64
2023/03/22 11:45:57;;;;;;;;;;;;;;;10.36;94.55;100623.53;5027251;28;19987;-64
2023/03/22 11:48:25;;;;;;;;;;;;;;;10.37;94.62;100635.81;5025446;28;20375;-64
2023/03/22 11:50:52;;;;;;;;;;;;;;;10.36;93.90;100616.41;5022685;28;19925;-63
2023/03/22 11:53:20;;;;;;;;;;;;;;;10.40;94.08;100614.22;5022838;28;19927;-63
2023/03/22 11:55:47;;;;;;;;;;;;;;;10.41;93.00;100606.13;5026093;28;19987;-64
2023/03/22 11:58:25;;;;;;;;;;;;;;;10.44;92.80;100599.63;5019217;28;19913;-64
2023/03/22 12:00:52;;;;;;;;;;;;;;;10.46;92.11;100606.41;5017863;28;19955;-64
2023/03/22 12:03:19;;;;;;;;;;;;;;;10.51;92.01;100604.06;5027251;28;19975;-64
2023/03/22 12:05:46;;;;;;;;;;;;;;;10.55;91.87;100601.88;5024547;28;19921;-63
2023/03/22 12:08:20;;;;;;;;;;;;;;;10.60;91.69;100602.16;5025702;28;19917;-63
2023/03/22 12:10:51;;;;;;;;;;;;;;;10.64;90.70;100589.34;5025147;28;19964;-64
2023/03/22 12:13:22;;;;;;;;;;;;;;;10.67;90.47;100600.44;5023522;28;20349;-64
2023/03/22 12:15:50;;;;;;;;;;;;;;;10.69;90.42;100602.91;5024451;28;19917;-63
2023/03/22 12:18:35;;;;;;;;;;;;;;;10.71;89.72;100606.25;5024545;28;19948;-63
2023/03/22 12:21:00;;;;;;;;;;;;;;;10.72;90.08;100605.25;5026592;28;19924;-63
2023/03/22 12:23:35;;;;;;;;;;;;;;;10.71;89.11;100607.06;5018797;28;19929;-64
2023/03/22 12:26:06;;;;;;;;;;;;;;;10.72;89.46;100605.25;5023840;28;20434;-64
2023/03/22 12:28:44;;;;;;;;;;;;;;;10.73;89.48;100598.94;5023057;28;19940;-63
2023/03/22 12:31:14;;;;;;;;;;;;;;;10.77;88.64;100611.69;5019785;28;20500;-64
2023/03/22 12:33:43;;;;;;;;;;;;;;;10.79;88.22;100603.53;5019693;28;19929;-64
2023/03/22 12:36:13;;;;;;;;;;;;;;;10.82;87.83;100609.31;5016775;28;20309;-64
2023/03/22 12:38:51;;;;;;;;;;;;;;;10.88;88.16;100604.28;5018074;28;20000;-63
2023/03/22 12:41:25;;;;;;;;;;;;;;;10.90;87.69;100608.41;5015042;28;19920;-64
2023/03/22 12:43:50;;;;;;;;;;;;;;;10.94;88.02;100599.06;5026490;28;20306;-64